sensor_id;sensor_type;location;lat;lon;timestamp;P1;durP1;ratioP1;P2;durP2;ratioP2
2972;SDS011;1496;51.404;7.232;2023-01-30T00:01:15;42.20;;;21.13;;
2972;SDS011;1496;51.404;7.232;2023-01-30T00:03:43;38.70;;;21.50;;
2972;SDS011;1496;51.404;7.232;2023-01-30T00:06:10;39.97;;;21.33;;
2972;SDS011;1496;51.404;7.232;2023-01-30T00:08:37;45.47;;;22.43;;
2972;SDS011;1496;51.404;7.232;2023-01-30T00:11:04;46.73;;;22.67;;
2972;SDS011;1496;51.404;7.232;2023-01-30T00:13:32;38.93;;;21.10;;
2972;SDS011;1496;51.404;7.232;2023-01-30T00:15:59;48.97;;;22.00;;
2972;SDS011;1496;51.404;7.232;2023-01-30T00:18:25;36.40;;;18.60;;
2972;SDS011;1496;51.404;7.232;2023-01-30T00:20:55;37.83;;;20.50;;
2972;SDS011;1496;51.404;7.232;2023-01-30T00:23:26;36.77;;;20.27;;
2972;SDS011;1496;51.404;7.232;2023-01-30T00:25:52;42.70;;;20.47;;
2972;SDS011;1496;51.404;7.232;2023-01-30T00:28:19;51.23;;;24.13;;
2972;SDS011;1496;51.404;7.232;2023-01-30T00:30:50;40.20;;;21.47;;
2972;SDS011;1496;51.404;7.232;2023-01-30T00:33:19;48.37;;;25.20;;
2972;SDS011;1496;51.404;7.232;2023-01-30T00:35:51;49.90;;;23.80;;
2972;SDS011;1496;51.404;7.232;2023-01-30T00:38:18;48.57;;;21.10;;
2972;SDS011;1496;51.404;7.232;2023-01-30T00:40:45;46.57;;;22.90;;
2972;SDS011;1496;51.404;7.232;2023-01-30T00:43:15;50.50;;;22.37;;
2972;SDS011;1496;51.404;7.232;2023-01-30T00:46:02;42.50;;;20.43;;
2972;SDS011;1496;51.404;7.232;2023-01-30T00:48:49;37.17;;;20.50;;
2972;SDS011;1496;51.404;7.232;2023-01-30T00:51:17;43.80;;;22.93;;
2972;SDS011;1496;51.404;7.232;2023-01-30T00:53:44;45.53;;;23.00;;
2972;SDS011;1496;51.404;7.232;2023-01-30T00:56:12;33.20;;;19.20;;
2972;SDS011;1496;51.404;7.232;2023-01-30T00:58:40;47.03;;;19.93;;
2972;SDS011;1496;51.404;7.232;2023-01-30T01:01:09;43.13;;;22.73;;
2972;SDS011;1496;51.404;7.232;2023-01-30T01:03:37;47.67;;;23.30;;
2972;SDS011;1496;51.404;7.232;2023-01-30T01:06:04;46.80;;;22.17;;
2972;SDS011;1496;51.404;7.232;2023-01-30T01:08:30;47.17;;;24.70;;
2972;SDS011;1496;51.404;7.232;2023-01-30T01:10:56;45.47;;;21.43;;
2972;SDS011;1496;51.404;7.232;2023-01-30T01:13:24;44.20;;;23.37;;
2972;SDS011;1496;51.404;7.232;2023-01-30T01:15:53;40.30;;;20.43;;
2972;SDS011;1496;51.404;7.232;2023-01-30T01:18:20;42.93;;;22.57;;
2972;SDS011;1496;51.404;7.232;2023-01-30T01:20:47;48.90;;;23.37;;
2972;SDS011;1496;51.404;7.232;2023-01-30T01:23:13;44.43;;;21.63;;
2972;SDS011;1496;51.404;7.232;2023-01-30T01:25:41;44.33;;;23.10;;
2972;SDS011;1496;51.404;7.232;2023-01-30T01:28:07;43.47;;;20.53;;
2972;SDS011;1496;51.404;7.232;2023-01-30T01:30:34;40.90;;;22.57;;
2972;SDS011;1496;51.404;7.232;2023-01-30T01:33:04;46.03;;;22.63;;
2972;SDS011;1496;51.404;7.232;2023-01-30T01:35:30;41.90;;;21.10;;
2972;SDS011;1496;51.404;7.232;2023-01-30T01:37:57;38.93;;;22.90;;
2972;SDS011;1496;51.404;7.232;2023-01-30T01:40:25;35.07;;;19.67;;
2972;SDS011;1496;51.404;7.232;2023-01-30T01:43:21;42.50;;;20.80;;
2972;SDS011;1496;51.404;7.232;2023-01-30T01:45:56;37.93;;;19.73;;
2972;SDS011;1496;51.404;7.232;2023-01-30T01:48:39;41.00;;;19.67;;
2972;SDS011;1496;51.404;7.232;2023-01-30T01:51:15;32.97;;;20.97;;
2972;SDS011;1496;51.404;7.232;2023-01-30T01:53:50;37.43;;;22.23;;
2972;SDS011;1496;51.404;7.232;2023-01-30T01:56:22;38.33;;;21.10;;
2972;SDS011;1496;51.404;7.232;2023-01-30T01:58:50;34.30;;;19.20;;
2972;SDS011;1496;51.404;7.232;2023-01-30T02:01:21;35.13;;;20.47;;
2972;SDS011;1496;51.404;7.232;2023-01-30T02:03:52;39.87;;;20.80;;
2972;SDS011;1496;51.404;7.232;2023-01-30T02:06:23;43.33;;;20.00;;
2972;SDS011;1496;51.404;7.232;2023-01-30T02:08:52;42.37;;;20.83;;
2972;SDS011;1496;51.404;7.232;2023-01-30T02:11:27;38.60;;;20.80;;
2972;SDS011;1496;51.404;7.232;2023-01-30T02:14:09;44.87;;;22.10;;
2972;SDS011;1496;51.404;7.232;2023-01-30T02:16:41;46.30;;;22.30;;
2972;SDS011;1496;51.404;7.232;2023-01-30T02:19:25;46.67;;;23.23;;
2972;SDS011;1496;51.404;7.232;2023-01-30T02:38:59;42.97;;;22.90;;
2972;SDS011;1496;51.404;7.232;2023-01-30T02:42:07;49.13;;;26.73;;
2972;SDS011;1496;51.404;7.232;2023-01-30T02:48:02;37.47;;;20.80;;
2972;SDS011;1496;51.404;7.232;2023-01-30T02:53:03;39.37;;;22.80;;
2972;SDS011;1496;51.404;7.232;2023-01-30T02:55:32;53.70;;;24.00;;
2972;SDS011;1496;51.404;7.232;2023-01-30T02:58:00;41.70;;;24.00;;
2972;SDS011;1496;51.404;7.232;2023-01-30T03:09:12;42.30;;;23.47;;
2972;SDS011;1496;51.404;7.232;2023-01-30T03:14:51;43.80;;;22.70;;
2972;SDS011;1496;51.404;7.232;2023-01-30T03:17:24;44.30;;;23.53;;
2972;SDS011;1496;51.404;7.232;2023-01-30T03:19:53;42.03;;;22.10;;
2972;SDS011;1496;51.404;7.232;2023-01-30T03:22:21;42.90;;;20.80;;
2972;SDS011;1496;51.404;7.232;2023-01-30T03:24:49;44.20;;;24.70;;
2972;SDS011;1496;51.404;7.232;2023-01-30T03:27:17;37.40;;;19.90;;
2972;SDS011;1496;51.404;7.232;2023-01-30T03:29:46;38.07;;;19.13;;
2972;SDS011;1496;51.404;7.232;2023-01-30T03:32:14;42.30;;;21.60;;
2972;SDS011;1496;51.404;7.232;2023-01-30T03:34:41;42.70;;;21.77;;
2972;SDS011;1496;51.404;7.232;2023-01-30T03:37:09;43.33;;;22.27;;
2972;SDS011;1496;51.404;7.232;2023-01-30T03:39:37;40.40;;;21.47;;
2972;SDS011;1496;51.404;7.232;2023-01-30T03:42:05;41.97;;;22.17;;
2972;SDS011;1496;51.404;7.232;2023-01-30T03:44:32;46.40;;;23.33;;
2972;SDS011;1496;51.404;7.232;2023-01-30T03:46:59;43.97;;;21.70;;
2972;SDS011;1496;51.404;7.232;2023-01-30T03:49:26;43.50;;;20.83;;
2972;SDS011;1496;51.404;7.232;2023-01-30T03:51:54;41.77;;;21.73;;
2972;SDS011;1496;51.404;7.232;2023-01-30T03:54:21;41.10;;;21.93;;
2972;SDS011;1496;51.404;7.232;2023-01-30T03:56:50;40.50;;;21.93;;
2972;SDS011;1496;51.404;7.232;2023-01-30T03:59:16;40.17;;;20.63;;
2972;SDS011;1496;51.404;7.232;2023-01-30T04:01:51;45.37;;;24.37;;
2972;SDS011;1496;51.404;7.232;2023-01-30T04:04:18;41.23;;;21.50;;
2972;SDS011;1496;51.404;7.232;2023-01-30T04:06:45;41.07;;;23.90;;
2972;SDS011;1496;51.404;7.232;2023-01-30T04:09:13;43.50;;;21.07;;
2972;SDS011;1496;51.404;7.232;2023-01-30T04:11:45;45.83;;;21.93;;
2972;SDS011;1496;51.404;7.232;2023-01-30T04:14:12;41.20;;;22.03;;
2972;SDS011;1496;51.404;7.232;2023-01-30T04:16:58;41.67;;;22.47;;
2972;SDS011;1496;51.404;7.232;2023-01-30T04:19:39;42.60;;;21.13;;
2972;SDS011;1496;51.404;7.232;2023-01-30T04:22:06;42.30;;;22.37;;
2972;SDS011;1496;51.404;7.232;2023-01-30T04:24:34;49.50;;;22.40;;
2972;SDS011;1496;51.404;7.232;2023-01-30T04:27:02;35.73;;;21.43;;
2972;SDS011;1496;51.404;7.232;2023-01-30T04:29:30;39.73;;;21.00;;
2972;SDS011;1496;51.404;7.232;2023-01-30T04:32:00;41.33;;;21.83;;
2972;SDS011;1496;51.404;7.232;2023-01-30T04:34:31;38.73;;;20.73;;
2972;SDS011;1496;51.404;7.232;2023-01-30T04:36:58;36.83;;;20.63;;
2972;SDS011;1496;51.404;7.232;2023-01-30T04:39:28;34.50;;;19.73;;
2972;SDS011;1496;51.404;7.232;2023-01-30T04:41:55;39.13;;;20.30;;
2972;SDS011;1496;51.404;7.232;2023-01-30T04:44:23;36.57;;;19.80;;
2972;SDS011;1496;51.404;7.232;2023-01-30T04:47:06;37.80;;;22.50;;
2972;SDS011;1496;51.404;7.232;2023-01-30T04:49:34;43.90;;;22.33;;
2972;SDS011;1496;51.404;7.232;2023-01-30T04:52:01;30.70;;;19.47;;
2972;SDS011;1496;51.404;7.232;2023-01-30T04:54:29;32.70;;;19.27;;
2972;SDS011;1496;51.404;7.232;2023-01-30T04:56:56;32.67;;;19.13;;
2972;SDS011;1496;51.404;7.232;2023-01-30T04:59:23;30.10;;;19.60;;
2972;SDS011;1496;51.404;7.232;2023-01-30T05:01:52;29.83;;;16.30;;
2972;SDS011;1496;51.404;7.232;2023-01-30T05:04:20;30.70;;;16.40;;
2972;SDS011;1496;51.404;7.232;2023-01-30T05:06:47;29.70;;;16.97;;
2972;SDS011;1496;51.404;7.232;2023-01-30T05:09:14;27.90;;;16.27;;
2972;SDS011;1496;51.404;7.232;2023-01-30T05:11:41;23.37;;;14.90;;
2972;SDS011;1496;51.404;7.232;2023-01-30T05:14:09;30.50;;;17.93;;
2972;SDS011;1496;51.404;7.232;2023-01-30T05:16:39;26.53;;;15.67;;
2972;SDS011;1496;51.404;7.232;2023-01-30T05:19:07;24.97;;;15.33;;
2972;SDS011;1496;51.404;7.232;2023-01-30T05:21:37;24.63;;;16.80;;
2972;SDS011;1496;51.404;7.232;2023-01-30T05:24:03;28.67;;;16.30;;
2972;SDS011;1496;51.404;7.232;2023-01-30T05:26:30;31.67;;;16.37;;
2972;SDS011;1496;51.404;7.232;2023-01-30T05:28:57;29.67;;;17.37;;
2972;SDS011;1496;51.404;7.232;2023-01-30T05:31:23;28.07;;;17.07;;
2972;SDS011;1496;51.404;7.232;2023-01-30T05:33:51;29.73;;;15.97;;
2972;SDS011;1496;51.404;7.232;2023-01-30T05:36:20;29.23;;;15.70;;
2972;SDS011;1496;51.404;7.232;2023-01-30T05:38:48;27.37;;;16.03;;
2972;SDS011;1496;51.404;7.232;2023-01-30T05:41:15;24.57;;;15.20;;
2972;SDS011;1496;51.404;7.232;2023-01-30T05:43:43;24.10;;;16.13;;
2972;SDS011;1496;51.404;7.232;2023-01-30T05:46:13;27.37;;;16.40;;
2972;SDS011;1496;51.404;7.232;2023-01-30T05:48:40;27.53;;;14.00;;
2972;SDS011;1496;51.404;7.232;2023-01-30T05:51:13;29.67;;;15.33;;
2972;SDS011;1496;51.404;7.232;2023-01-30T05:53:42;30.40;;;17.73;;
2972;SDS011;1496;51.404;7.232;2023-01-30T05:56:09;28.43;;;17.63;;
2972;SDS011;1496;51.404;7.232;2023-01-30T05:58:36;33.60;;;17.40;;
2972;SDS011;1496;51.404;7.232;2023-01-30T06:01:03;23.90;;;14.97;;
2972;SDS011;1496;51.404;7.232;2023-01-30T06:03:31;31.47;;;17.33;;
2972;SDS011;1496;51.404;7.232;2023-01-30T06:06:00;27.83;;;15.70;;
2972;SDS011;1496;51.404;7.232;2023-01-30T06:08:28;26.43;;;16.30;;
2972;SDS011;1496;51.404;7.232;2023-01-30T06:10:59;25.40;;;17.20;;
2972;SDS011;1496;51.404;7.232;2023-01-30T06:13:27;24.90;;;15.73;;
2972;SDS011;1496;51.404;7.232;2023-01-30T06:15:54;29.73;;;17.40;;
2972;SDS011;1496;51.404;7.232;2023-01-30T06:18:20;26.03;;;17.30;;
2972;SDS011;1496;51.404;7.232;2023-01-30T06:20:47;29.47;;;17.73;;
2972;SDS011;1496;51.404;7.232;2023-01-30T06:23:14;37.77;;;18.60;;
2972;SDS011;1496;51.404;7.232;2023-01-30T06:25:42;24.53;;;16.83;;
2972;SDS011;1496;51.404;7.232;2023-01-30T06:28:12;33.13;;;18.50;;
2972;SDS011;1496;51.404;7.232;2023-01-30T06:30:40;27.40;;;18.30;;
2972;SDS011;1496;51.404;7.232;2023-01-30T06:33:08;38.73;;;19.73;;
2972;SDS011;1496;51.404;7.232;2023-01-30T06:35:38;36.67;;;21.60;;
2972;SDS011;1496;51.404;7.232;2023-01-30T06:38:06;38.67;;;19.13;;
2972;SDS011;1496;51.404;7.232;2023-01-30T06:40:38;33.63;;;20.60;;
2972;SDS011;1496;51.404;7.232;2023-01-30T06:43:06;37.57;;;23.70;;
2972;SDS011;1496;51.404;7.232;2023-01-30T06:45:33;38.27;;;22.60;;
2972;SDS011;1496;51.404;7.232;2023-01-30T06:47:59;34.73;;;23.50;;
2972;SDS011;1496;51.404;7.232;2023-01-30T06:50:27;41.80;;;22.60;;
2972;SDS011;1496;51.404;7.232;2023-01-30T06:52:56;32.17;;;22.90;;
2972;SDS011;1496;51.404;7.232;2023-01-30T06:55:25;38.20;;;23.73;;
2972;SDS011;1496;51.404;7.232;2023-01-30T06:58:00;38.73;;;23.07;;
2972;SDS011;1496;51.404;7.232;2023-01-30T07:00:32;41.63;;;24.10;;
2972;SDS011;1496;51.404;7.232;2023-01-30T07:03:00;46.83;;;28.60;;
2972;SDS011;1496;51.404;7.232;2023-01-30T07:05:27;39.00;;;25.20;;
2972;SDS011;1496;51.404;7.232;2023-01-30T07:07:53;41.07;;;25.40;;
2972;SDS011;1496;51.404;7.232;2023-01-30T07:10:21;39.10;;;25.40;;
2972;SDS011;1496;51.404;7.232;2023-01-30T07:12:51;41.13;;;25.47;;
2972;SDS011;1496;51.404;7.232;2023-01-30T07:15:18;34.60;;;23.60;;
2972;SDS011;1496;51.404;7.232;2023-01-30T07:17:45;43.90;;;23.37;;
2972;SDS011;1496;51.404;7.232;2023-01-30T07:20:12;33.57;;;21.87;;
2972;SDS011;1496;51.404;7.232;2023-01-30T07:22:39;31.27;;;22.23;;
2972;SDS011;1496;51.404;7.232;2023-01-30T07:25:06;31.83;;;20.80;;
2972;SDS011;1496;51.404;7.232;2023-01-30T07:27:33;41.90;;;21.50;;
2972;SDS011;1496;51.404;7.232;2023-01-30T07:30:00;33.20;;;21.43;;
2972;SDS011;1496;51.404;7.232;2023-01-30T07:32:26;36.67;;;22.67;;
2972;SDS011;1496;51.404;7.232;2023-01-30T07:34:52;37.43;;;22.17;;
2972;SDS011;1496;51.404;7.232;2023-01-30T07:37:20;32.13;;;20.33;;
2972;SDS011;1496;51.404;7.232;2023-01-30T07:39:46;41.43;;;21.40;;
2972;SDS011;1496;51.404;7.232;2023-01-30T07:42:12;28.33;;;19.63;;
2972;SDS011;1496;51.404;7.232;2023-01-30T07:44:39;33.40;;;18.63;;
2972;SDS011;1496;51.404;7.232;2023-01-30T07:47:05;29.17;;;16.97;;
2972;SDS011;1496;51.404;7.232;2023-01-30T07:49:31;25.80;;;18.50;;
2972;SDS011;1496;51.404;7.232;2023-01-30T07:51:58;25.90;;;15.40;;
2972;SDS011;1496;51.404;7.232;2023-01-30T07:54:24;32.20;;;17.70;;
2972;SDS011;1496;51.404;7.232;2023-01-30T07:56:51;26.77;;;15.03;;
2972;SDS011;1496;51.404;7.232;2023-01-30T07:59:18;26.10;;;13.40;;
2972;SDS011;1496;51.404;7.232;2023-01-30T08:01:44;25.50;;;13.30;;
2972;SDS011;1496;51.404;7.232;2023-01-30T08:04:11;25.47;;;13.80;;
2972;SDS011;1496;51.404;7.232;2023-01-30T08:06:39;29.90;;;14.47;;
2972;SDS011;1496;51.404;7.232;2023-01-30T08:09:05;27.50;;;15.33;;
2972;SDS011;1496;51.404;7.232;2023-01-30T08:11:33;25.07;;;12.50;;
2972;SDS011;1496;51.404;7.232;2023-01-30T08:13:59;23.33;;;12.47;;
2972;SDS011;1496;51.404;7.232;2023-01-30T08:16:27;24.37;;;11.60;;
2972;SDS011;1496;51.404;7.232;2023-01-30T08:18:56;20.20;;;12.10;;
2972;SDS011;1496;51.404;7.232;2023-01-30T08:21:22;15.80;;;10.10;;
2972;SDS011;1496;51.404;7.232;2023-01-30T08:23:50;24.90;;;10.77;;
2972;SDS011;1496;51.404;7.232;2023-01-30T08:26:16;15.50;;;10.40;;
2972;SDS011;1496;51.404;7.232;2023-01-30T08:28:44;18.03;;;9.43;;
2972;SDS011;1496;51.404;7.232;2023-01-30T08:31:12;20.57;;;8.90;;
2972;SDS011;1496;51.404;7.232;2023-01-30T08:33:42;13.93;;;7.80;;
2972;SDS011;1496;51.404;7.232;2023-01-30T08:36:09;17.20;;;8.93;;
2972;SDS011;1496;51.404;7.232;2023-01-30T08:38:36;18.43;;;9.20;;
2972;SDS011;1496;51.404;7.232;2023-01-30T08:41:05;18.13;;;8.80;;
2972;SDS011;1496;51.404;7.232;2023-01-30T08:43:33;17.83;;;9.27;;
2972;SDS011;1496;51.404;7.232;2023-01-30T08:46:00;18.47;;;8.77;;
2972;SDS011;1496;51.404;7.232;2023-01-30T08:48:29;18.03;;;9.63;;
2972;SDS011;1496;51.404;7.232;2023-01-30T08:50:56;19.70;;;9.80;;
2972;SDS011;1496;51.404;7.232;2023-01-30T08:53:22;15.97;;;8.57;;
2972;SDS011;1496;51.404;7.232;2023-01-30T08:55:50;16.63;;;8.60;;
2972;SDS011;1496;51.404;7.232;2023-01-30T08:58:21;22.23;;;7.70;;
2972;SDS011;1496;51.404;7.232;2023-01-30T09:00:49;10.27;;;6.50;;
2972;SDS011;1496;51.404;7.232;2023-01-30T09:03:17;16.47;;;6.13;;
2972;SDS011;1496;51.404;7.232;2023-01-30T09:05:44;15.93;;;6.07;;
2972;SDS011;1496;51.404;7.232;2023-01-30T09:08:10;21.07;;;5.37;;
2972;SDS011;1496;51.404;7.232;2023-01-30T09:10:38;16.93;;;7.37;;
2972;SDS011;1496;51.404;7.232;2023-01-30T09:13:08;21.57;;;5.33;;
2972;SDS011;1496;51.404;7.232;2023-01-30T09:15:35;11.57;;;3.97;;
2972;SDS011;1496;51.404;7.232;2023-01-30T09:18:02;18.87;;;4.70;;
2972;SDS011;1496;51.404;7.232;2023-01-30T09:20:31;14.80;;;4.30;;
2972;SDS011;1496;51.404;7.232;2023-01-30T09:22:57;17.70;;;5.00;;
2972;SDS011;1496;51.404;7.232;2023-01-30T09:25:25;9.80;;;5.10;;
2972;SDS011;1496;51.404;7.232;2023-01-30T09:27:53;14.17;;;4.30;;
2972;SDS011;1496;51.404;7.232;2023-01-30T09:30:20;10.77;;;3.93;;
2972;SDS011;1496;51.404;7.232;2023-01-30T09:32:46;13.93;;;4.10;;
2972;SDS011;1496;51.404;7.232;2023-01-30T09:35:13;10.50;;;3.83;;
2972;SDS011;1496;51.404;7.232;2023-01-30T09:37:47;16.33;;;3.70;;
2972;SDS011;1496;51.404;7.232;2023-01-30T09:40:15;12.53;;;3.70;;
2972;SDS011;1496;51.404;7.232;2023-01-30T09:45:57;9.93;;;3.90;;
2972;SDS011;1496;51.404;7.232;2023-01-30T09:48:56;9.50;;;3.60;;
2972;SDS011;1496;51.404;7.232;2023-01-30T09:54:18;10.07;;;3.20;;
2972;SDS011;1496;51.404;7.232;2023-01-30T09:56:54;10.57;;;4.80;;
2972;SDS011;1496;51.404;7.232;2023-01-30T09:59:31;11.03;;;3.63;;
2972;SDS011;1496;51.404;7.232;2023-01-30T10:04:47;15.67;;;3.30;;
2972;SDS011;1496;51.404;7.232;2023-01-30T10:10:11;20.57;;;3.40;;
2972;SDS011;1496;51.404;7.232;2023-01-30T10:12:54;11.30;;;3.40;;
2972;SDS011;1496;51.404;7.232;2023-01-30T10:16:36;18.37;;;4.00;;
2972;SDS011;1496;51.404;7.232;2023-01-30T10:21:26;13.00;;;3.77;;
2972;SDS011;1496;51.404;7.232;2023-01-30T10:27:13;14.70;;;4.10;;
2972;SDS011;1496;51.404;7.232;2023-01-30T10:29:42;16.83;;;3.90;;
2972;SDS011;1496;51.404;7.232;2023-01-30T10:32:29;12.17;;;3.40;;
2972;SDS011;1496;51.404;7.232;2023-01-30T10:35:08;13.23;;;3.37;;
2972;SDS011;1496;51.404;7.232;2023-01-30T10:37:50;14.40;;;3.50;;
2972;SDS011;1496;51.404;7.232;2023-01-30T10:40:48;12.63;;;4.27;;
2972;SDS011;1496;51.404;7.232;2023-01-30T10:49:01;12.77;;;3.33;;
2972;SDS011;1496;51.404;7.232;2023-01-30T10:51:47;16.77;;;3.60;;
2972;SDS011;1496;51.404;7.232;2023-01-30T10:54:34;12.37;;;2.77;;
2972;SDS011;1496;51.404;7.232;2023-01-30T10:57:43;20.17;;;3.63;;
2972;SDS011;1496;51.404;7.232;2023-01-30T11:00:28;7.17;;;2.90;;
2972;SDS011;1496;51.404;7.232;2023-01-30T11:08:59;13.77;;;3.10;;
2972;SDS011;1496;51.404;7.232;2023-01-30T11:11:32;9.10;;;2.70;;
2972;SDS011;1496;51.404;7.232;2023-01-30T11:14:08;9.57;;;2.80;;
2972;SDS011;1496;51.404;7.232;2023-01-30T11:16:43;24.83;;;4.10;;
2972;SDS011;1496;51.404;7.232;2023-01-30T11:19:14;12.37;;;2.53;;
2972;SDS011;1496;51.404;7.232;2023-01-30T11:21:51;14.37;;;3.00;;
2972;SDS011;1496;51.404;7.232;2023-01-30T11:24:22;17.20;;;2.90;;
2972;SDS011;1496;51.404;7.232;2023-01-30T11:26:53;16.47;;;3.20;;
2972;SDS011;1496;51.404;7.232;2023-01-30T11:29:32;14.87;;;2.90;;
2972;SDS011;1496;51.404;7.232;2023-01-30T11:32:00;12.93;;;3.27;;
2972;SDS011;1496;51.404;7.232;2023-01-30T11:34:31;29.83;;;5.63;;
2972;SDS011;1496;51.404;7.232;2023-01-30T11:37:43;17.63;;;3.77;;
2972;SDS011;1496;51.404;7.232;2023-01-30T11:39:50;17.30;;;3.73;;
2972;SDS011;1496;51.404;7.232;2023-01-30T11:42:18;19.23;;;3.80;;
2972;SDS011;1496;51.404;7.232;2023-01-30T11:44:53;16.87;;;3.47;;
2972;SDS011;1496;51.404;7.232;2023-01-30T11:47:23;8.87;;;2.90;;
2972;SDS011;1496;51.404;7.232;2023-01-30T11:49:54;11.50;;;2.77;;
2972;SDS011;1496;51.404;7.232;2023-01-30T11:52:25;27.97;;;4.23;;
2972;SDS011;1496;51.404;7.232;2023-01-30T11:54:57;20.30;;;3.33;;
2972;SDS011;1496;51.404;7.232;2023-01-30T11:57:26;25.77;;;4.97;;
2972;SDS011;1496;51.404;7.232;2023-01-30T11:59:54;24.87;;;3.80;;
2972;SDS011;1496;51.404;7.232;2023-01-30T12:02:30;18.90;;;3.47;;
2972;SDS011;1496;51.404;7.232;2023-01-30T12:05:04;20.13;;;3.93;;
2972;SDS011;1496;51.404;7.232;2023-01-30T12:07:52;22.83;;;4.33;;
2972;SDS011;1496;51.404;7.232;2023-01-30T12:10:38;18.77;;;3.17;;
2972;SDS011;1496;51.404;7.232;2023-01-30T12:13:14;13.00;;;3.10;;
2972;SDS011;1496;51.404;7.232;2023-01-30T12:15:45;15.33;;;4.20;;
2972;SDS011;1496;51.404;7.232;2023-01-30T12:18:22;11.57;;;3.10;;
2972;SDS011;1496;51.404;7.232;2023-01-30T12:21:12;16.90;;;4.37;;
2972;SDS011;1496;51.404;7.232;2023-01-30T12:26:36;8.53;;;2.77;;
2972;SDS011;1496;51.404;7.232;2023-01-30T12:32:05;16.10;;;3.63;;
2972;SDS011;1496;51.404;7.232;2023-01-30T12:34:40;14.43;;;4.17;;
2972;SDS011;1496;51.404;7.232;2023-01-30T12:37:20;13.40;;;4.00;;
2972;SDS011;1496;51.404;7.232;2023-01-30T12:48:05;12.43;;;2.97;;
2972;SDS011;1496;51.404;7.232;2023-01-30T12:53:49;23.00;;;4.60;;
2972;SDS011;1496;51.404;7.232;2023-01-30T12:59:29;18.60;;;3.30;;
2972;SDS011;1496;51.404;7.232;2023-01-30T13:02:25;17.33;;;3.30;;
2972;SDS011;1496;51.404;7.232;2023-01-30T13:08:02;18.17;;;2.90;;
2972;SDS011;1496;51.404;7.232;2023-01-30T13:10:38;26.23;;;2.80;;
2972;SDS011;1496;51.404;7.232;2023-01-30T13:13:33;25.90;;;4.03;;
2972;SDS011;1496;51.404;7.232;2023-01-30T13:22:55;32.00;;;3.63;;
2972;SDS011;1496;51.404;7.232;2023-01-30T13:25:26;26.43;;;4.00;;
2972;SDS011;1496;51.404;7.232;2023-01-30T13:28:00;31.17;;;3.17;;
2972;SDS011;1496;51.404;7.232;2023-01-30T13:30:37;37.30;;;4.63;;
2972;SDS011;1496;51.404;7.232;2023-01-30T13:33:12;37.57;;;4.50;;
2972;SDS011;1496;51.404;7.232;2023-01-30T13:35:55;43.13;;;4.63;;
2972;SDS011;1496;51.404;7.232;2023-01-30T13:38:32;33.60;;;3.37;;
2972;SDS011;1496;51.404;7.232;2023-01-30T13:41:07;31.47;;;3.67;;
2972;SDS011;1496;51.404;7.232;2023-01-30T13:43:38;39.30;;;5.17;;
2972;SDS011;1496;51.404;7.232;2023-01-30T13:46:10;36.10;;;4.37;;
2972;SDS011;1496;51.404;7.232;2023-01-30T13:51:51;42.60;;;5.03;;
2972;SDS011;1496;51.404;7.232;2023-01-30T13:54:32;37.90;;;3.87;;
2972;SDS011;1496;51.404;7.232;2023-01-30T13:57:24;35.93;;;3.10;;
2972;SDS011;1496;51.404;7.232;2023-01-30T14:08:27;41.03;;;3.23;;
2972;SDS011;1496;51.404;7.232;2023-01-30T14:10:58;39.37;;;4.73;;
2972;SDS011;1496;51.404;7.232;2023-01-30T14:13:27;39.13;;;5.20;;
2972;SDS011;1496;51.404;7.232;2023-01-30T14:15:59;37.37;;;4.10;;
2972;SDS011;1496;51.404;7.232;2023-01-30T14:18:30;43.03;;;4.53;;
2972;SDS011;1496;51.404;7.232;2023-01-30T14:21:16;38.30;;;3.73;;
2972;SDS011;1496;51.404;7.232;2023-01-30T14:24:01;36.63;;;4.23;;
2972;SDS011;1496;51.404;7.232;2023-01-30T14:27:18;45.47;;;5.60;;
2972;SDS011;1496;51.404;7.232;2023-01-30T14:32:49;34.43;;;4.37;;
2972;SDS011;1496;51.404;7.232;2023-01-30T14:39:56;36.90;;;3.87;;
2972;SDS011;1496;51.404;7.232;2023-01-30T14:42:28;34.00;;;4.37;;
2972;SDS011;1496;51.404;7.232;2023-01-30T14:47:28;39.77;;;3.30;;
2972;SDS011;1496;51.404;7.232;2023-01-30T14:49:57;37.50;;;5.20;;
2972;SDS011;1496;51.404;7.232;2023-01-30T14:52:40;35.90;;;3.90;;
2972;SDS011;1496;51.404;7.232;2023-01-30T14:55:18;33.20;;;4.07;;
2972;SDS011;1496;51.404;7.232;2023-01-30T14:57:54;34.83;;;3.80;;
2972;SDS011;1496;51.404;7.232;2023-01-30T15:00:25;38.90;;;4.80;;
2972;SDS011;1496;51.404;7.232;2023-01-30T15:02:58;35.63;;;3.47;;
2972;SDS011;1496;51.404;7.232;2023-01-30T15:05:32;31.40;;;3.60;;
2972;SDS011;1496;51.404;7.232;2023-01-30T15:08:06;41.53;;;4.87;;
2972;SDS011;1496;51.404;7.232;2023-01-30T15:10:45;33.20;;;3.10;;
2972;SDS011;1496;51.404;7.232;2023-01-30T15:21:47;42.30;;;4.37;;
2972;SDS011;1496;51.404;7.232;2023-01-30T15:27:23;31.97;;;3.43;;
2972;SDS011;1496;51.404;7.232;2023-01-30T15:33:21;30.93;;;3.30;;
2972;SDS011;1496;51.404;7.232;2023-01-30T15:35:49;35.30;;;3.93;;
2972;SDS011;1496;51.404;7.232;2023-01-30T15:38:26;34.80;;;4.00;;
2972;SDS011;1496;51.404;7.232;2023-01-30T15:40:54;32.03;;;3.03;;
2972;SDS011;1496;51.404;7.232;2023-01-30T15:43:41;38.33;;;4.10;;
2972;SDS011;1496;51.404;7.232;2023-01-30T15:46:17;34.43;;;4.10;;
2972;SDS011;1496;51.404;7.232;2023-01-30T15:51:34;34.37;;;4.30;;
2972;SDS011;1496;51.404;7.232;2023-01-30T15:54:02;30.70;;;3.40;;
2972;SDS011;1496;51.404;7.232;2023-01-30T15:56:35;29.40;;;3.80;;
2972;SDS011;1496;51.404;7.232;2023-01-30T15:59:04;35.37;;;3.67;;
2972;SDS011;1496;51.404;7.232;2023-01-30T16:01:33;52.73;;;6.27;;
2972;SDS011;1496;51.404;7.232;2023-01-30T16:03:59;33.63;;;4.17;;
2972;SDS011;1496;51.404;7.232;2023-01-30T16:06:33;38.83;;;3.97;;
2972;SDS011;1496;51.404;7.232;2023-01-30T16:09:05;40.33;;;4.47;;
2972;SDS011;1496;51.404;7.232;2023-01-30T16:11:48;31.77;;;4.23;;
2972;SDS011;1496;51.404;7.232;2023-01-30T16:14:19;31.17;;;4.87;;
2972;SDS011;1496;51.404;7.232;2023-01-30T16:16:57;37.63;;;3.70;;
2972;SDS011;1496;51.404;7.232;2023-01-30T16:19:28;36.37;;;4.77;;
2972;SDS011;1496;51.404;7.232;2023-01-30T16:21:59;34.93;;;3.57;;
2972;SDS011;1496;51.404;7.232;2023-01-30T16:24:29;34.70;;;3.50;;
2972;SDS011;1496;51.404;7.232;2023-01-30T16:26:58;33.53;;;3.70;;
2972;SDS011;1496;51.404;7.232;2023-01-30T16:29:31;30.73;;;3.67;;
2972;SDS011;1496;51.404;7.232;2023-01-30T16:32:14;32.50;;;4.03;;
2972;SDS011;1496;51.404;7.232;2023-01-30T16:34:42;38.73;;;3.83;;
2972;SDS011;1496;51.404;7.232;2023-01-30T16:39:41;37.97;;;5.20;;
2972;SDS011;1496;51.404;7.232;2023-01-30T16:42:24;38.47;;;4.50;;
2972;SDS011;1496;51.404;7.232;2023-01-30T16:47:47;35.33;;;3.30;;
2972;SDS011;1496;51.404;7.232;2023-01-30T16:50:21;37.63;;;4.57;;
2972;SDS011;1496;51.404;7.232;2023-01-30T16:52:52;40.73;;;4.50;;
2972;SDS011;1496;51.404;7.232;2023-01-30T16:55:21;45.77;;;4.60;;
2972;SDS011;1496;51.404;7.232;2023-01-30T16:57:54;40.97;;;5.10;;
2972;SDS011;1496;51.404;7.232;2023-01-30T17:00:36;33.73;;;3.57;;
2972;SDS011;1496;51.404;7.232;2023-01-30T17:03:05;37.37;;;4.83;;
2972;SDS011;1496;51.404;7.232;2023-01-30T17:05:50;36.03;;;4.77;;
2972;SDS011;1496;51.404;7.232;2023-01-30T17:10:57;38.13;;;3.73;;
2972;SDS011;1496;51.404;7.232;2023-01-30T17:18:49;35.97;;;4.07;;
2972;SDS011;1496;51.404;7.232;2023-01-30T17:21:18;37.83;;;3.83;;
2972;SDS011;1496;51.404;7.232;2023-01-30T17:24:09;33.17;;;3.90;;
2972;SDS011;1496;51.404;7.232;2023-01-30T17:26:38;46.00;;;4.60;;
2972;SDS011;1496;51.404;7.232;2023-01-30T17:29:05;50.93;;;4.77;;
2972;SDS011;1496;51.404;7.232;2023-01-30T17:31:33;50.10;;;5.57;;
2972;SDS011;1496;51.404;7.232;2023-01-30T17:34:00;48.07;;;5.00;;
2972;SDS011;1496;51.404;7.232;2023-01-30T17:36:27;49.70;;;4.77;;
2972;SDS011;1496;51.404;7.232;2023-01-30T17:38:56;40.50;;;3.70;;
2972;SDS011;1496;51.404;7.232;2023-01-30T17:41:26;40.87;;;4.10;;
2972;SDS011;1496;51.404;7.232;2023-01-30T17:43:58;37.07;;;4.73;;
2972;SDS011;1496;51.404;7.232;2023-01-30T17:46:30;39.27;;;4.97;;
2972;SDS011;1496;51.404;7.232;2023-01-30T17:49:00;40.30;;;4.17;;